Time;durP1;ratioP1;P1;durP2;ratioP2;P2;SDS_P1;SDS_P2;PMS_P1;PMS_P2;Temp;Humidity;BMP_temperature;BMP_pressure;BME280_temperature;BME280_humidity;BME280_pressure;Samples;Min_cycle;Max_cycle;Signal;HPM_P1;HPM_P2
2021/12/04 00:00:50;;;;;;;16.60;11.97;;;;;;;;;;4979583;28;20641;-62
2021/12/04 00:03:16;;;;;;;13.70;10.30;;;;;;;;;;4978776;28;20188;-63
2021/12/04 00:05:54;;;;;;;14.00;10.17;;;;;;;;;;4978971;28;20256;-61
2021/12/04 00:08:22;;;;;;;14.83;10.17;;;;;;;;;;4978775;28;20248;-61
2021/12/04 00:10:48;;;;;;;16.37;11.57;;;;;;;;;;4977586;28;20853;-62
2021/12/04 00:13:14;;;;;;;15.20;10.97;;;;;;;;;;4978493;28;20614;-62
2021/12/04 00:15:40;;;;;;;17.13;12.33;;;;;;;;;;4977497;28;20210;-62
2021/12/04 00:18:06;;;;;;;19.50;12.50;;;;;;;;;;4978858;28;20237;-62
2021/12/04 00:20:33;;;;;;;16.90;12.33;;;;;;;;;;4978866;28;20725;-62
2021/12/04 00:23:00;;;;;;;17.87;12.47;;;;;;;;;;4978769;28;20177;-62
2021/12/04 00:25:26;;;;;;;20.83;12.83;;;;;;;;;;4978317;28;20185;-62
2021/12/04 00:27:52;;;;;;;20.00;13.20;;;;;;;;;;4978408;28;20220;-62
2021/12/04 00:30:18;;;;;;;22.37;12.80;;;;;;;;;;4978134;28;20188;-62
2021/12/04 00:32:54;;;;;;;17.23;12.20;;;;;;;;;;4978639;28;20181;-61
2021/12/04 00:35:33;;;;;;;16.40;12.07;;;;;;;;;;4976452;28;20208;-61
2021/12/04 00:43:17;;;;;;;20.13;12.43;;;;;;;;;;4977963;28;20197;-66
2021/12/04 00:51:31;;;;;;;20.33;15.10;;;;;;;;;;4978472;28;20176;-60
2021/12/04 00:53:57;;;;;;;20.77;14.63;;;;;;;;;;4977004;28;20212;-62
2021/12/04 00:56:23;;;;;;;23.97;14.77;;;;;;;;;;4978368;28;20185;-62
2021/12/04 00:58:49;;;;;;;24.83;14.50;;;;;;;;;;4975977;28;20209;-62
2021/12/04 01:01:19;;;;;;;22.60;15.37;;;;;;;;;;4977453;28;20177;-62
2021/12/04 01:03:45;;;;;;;25.90;16.63;;;;;;;;;;4977393;28;20260;-61
2021/12/04 01:06:11;;;;;;;28.00;18.77;;;;;;;;;;4977991;28;20448;-61
2021/12/04 01:08:37;;;;;;;25.23;16.67;;;;;;;;;;4977351;28;20629;-63
2021/12/04 01:11:03;;;;;;;20.90;15.10;;;;;;;;;;4978047;28;20261;-61
2021/12/04 01:13:30;;;;;;;21.47;15.23;;;;;;;;;;4977816;28;20256;-61
2021/12/04 01:15:56;;;;;;;21.40;12.93;;;;;;;;;;4976602;28;20205;-62
2021/12/04 01:18:22;;;;;;;15.60;11.57;;;;;;;;;;4977251;28;20204;-62
2021/12/04 01:20:48;;;;;;;17.30;12.40;;;;;;;;;;4977464;28;20209;-62
2021/12/04 01:23:16;;;;;;;13.67;11.60;;;;;;;;;;4977044;28;20174;-62
2021/12/04 01:25:42;;;;;;;13.80;12.07;;;;;;;;;;4977112;28;20198;-62
2021/12/04 01:28:08;;;;;;;14.93;11.27;;;;;;;;;;4977130;28;20227;-64
2021/12/04 01:30:34;;;;;;;13.13;11.10;;;;;;;;;;4976594;28;20421;-62
2021/12/04 01:33:00;;;;;;;22.00;12.23;;;;;;;;;;4976047;28;20181;-61
2021/12/04 01:35:26;;;;;;;13.07;11.60;;;;;;;;;;4977507;28;20215;-62
2021/12/04 01:37:52;;;;;;;14.77;11.90;;;;;;;;;;4976995;28;20201;-62
2021/12/04 01:40:18;;;;;;;14.17;10.50;;;;;;;;;;4977777;28;20173;-62
2021/12/04 01:42:45;;;;;;;21.93;13.47;;;;;;;;;;4977410;28;20667;-61
2021/12/04 01:45:11;;;;;;;21.93;14.63;;;;;;;;;;4976031;28;20650;-62
2021/12/04 01:47:37;;;;;;;28.57;16.67;;;;;;;;;;4977676;28;20440;-61
2021/12/04 01:50:04;;;;;;;20.90;13.83;;;;;;;;;;4977473;28;20196;-62
2021/12/04 01:52:30;;;;;;;17.63;12.67;;;;;;;;;;4977079;28;20181;-65
2021/12/04 01:54:57;;;;;;;19.37;12.83;;;;;;;;;;4977503;28;20212;-62
2021/12/04 01:57:24;;;;;;;19.70;13.60;;;;;;;;;;4977257;28;20471;-62
2021/12/04 01:59:50;;;;;;;14.70;12.33;;;;;;;;;;4977290;28;20181;-62
2021/12/04 02:02:16;;;;;;;17.93;13.27;;;;;;;;;;4977364;28;20220;-62
2021/12/04 02:04:42;;;;;;;14.37;12.57;;;;;;;;;;4977638;28;20178;-62
2021/12/04 02:07:10;;;;;;;16.43;13.17;;;;;;;;;;4975739;28;20200;-62
2021/12/04 02:09:37;;;;;;;18.20;14.90;;;;;;;;;;4977178;28;20185;-61
2021/12/04 02:12:05;;;;;;;19.40;14.30;;;;;;;;;;4975696;28;20187;-61
2021/12/04 02:14:39;;;;;;;23.03;14.00;;;;;;;;;;4976066;28;20215;-62
2021/12/04 02:17:05;;;;;;;17.57;14.70;;;;;;;;;;4975481;28;20582;-61
2021/12/04 02:19:31;;;;;;;20.80;14.27;;;;;;;;;;4974813;28;20177;-61
2021/12/04 02:21:57;;;;;;;22.53;14.73;;;;;;;;;;4976311;28;20419;-62
2021/12/04 02:24:23;;;;;;;19.17;14.77;;;;;;;;;;4977010;28;20181;-61
2021/12/04 02:26:50;;;;;;;16.27;13.60;;;;;;;;;;4977626;28;20213;-62
2021/12/04 02:29:17;;;;;;;17.37;13.73;;;;;;;;;;4980633;28;20412;-61
2021/12/04 02:31:46;;;;;;;14.17;12.30;;;;;;;;;;4980785;28;20181;-62
2021/12/04 02:34:18;;;;;;;15.20;12.67;;;;;;;;;;4979283;28;20209;-62
2021/12/04 02:36:44;;;;;;;19.53;13.27;;;;;;;;;;4980239;28;20166;-62
2021/12/04 02:39:10;;;;;;;16.47;12.63;;;;;;;;;;4980217;28;20208;-61
2021/12/04 02:41:36;;;;;;;15.57;13.17;;;;;;;;;;4980215;28;20177;-68
2021/12/04 02:44:02;;;;;;;16.70;12.40;;;;;;;;;;4980760;28;20173;-62
2021/12/04 02:46:34;;;;;;;14.50;12.03;;;;;;;;;;4979868;28;20491;-61
2021/12/04 02:49:04;;;;;;;16.90;13.63;;;;;;;;;;4980211;28;20161;-62
2021/12/04 02:51:30;;;;;;;17.67;12.47;;;;;;;;;;4979826;28;20178;-62
2021/12/04 02:53:56;;;;;;;16.23;12.37;;;;;;;;;;4979957;28;20184;-61
2021/12/04 02:56:25;;;;;;;13.63;11.87;;;;;;;;;;4979790;28;20296;-62
2021/12/04 02:58:54;;;;;;;14.87;12.67;;;;;;;;;;4979103;28;20185;-61
2021/12/04 03:01:20;;;;;;;14.43;11.07;;;;;;;;;;4979494;28;20662;-62
2021/12/04 03:03:47;;;;;;;12.00;10.30;;;;;;;;;;4979437;28;20215;-62
2021/12/04 03:06:13;;;;;;;12.57;10.80;;;;;;;;;;4979877;28;20173;-61
2021/12/04 03:08:39;;;;;;;11.97;10.63;;;;;;;;;;4979694;28;20548;-62
2021/12/04 03:11:05;;;;;;;14.13;11.13;;;;;;;;;;4978606;28;20185;-62
2021/12/04 03:13:31;;;;;;;12.43;11.13;;;;;;;;;;4979915;28;20634;-62
2021/12/04 03:15:59;;;;;;;12.50;11.23;;;;;;;;;;4979600;28;20232;-61
2021/12/04 03:18:25;;;;;;;12.30;11.00;;;;;;;;;;4980255;28;20193;-62
2021/12/04 03:20:54;;;;;;;15.13;12.00;;;;;;;;;;4978253;28;20646;-61
2021/12/04 03:23:51;;;;;;;13.53;11.80;;;;;;;;;;4979471;28;20550;-61
2021/12/04 03:26:10;;;;;;;13.47;11.77;;;;;;;;;;4980179;28;20667;-62
2021/12/04 03:28:36;;;;;;;12.90;11.13;;;;;;;;;;4978771;28;20224;-62
2021/12/04 03:31:12;;;;;;;13.57;11.03;;;;;;;;;;4979337;28;20177;-62
2021/12/04 03:41:52;;;;;;;16.97;12.33;;;;;;;;;;4979672;28;20468;-62
2021/12/04 03:44:18;;;;;;;15.10;10.93;;;;;;;;;;4978086;28;20181;-61
2021/12/04 03:46:46;;;;;;;16.07;11.83;;;;;;;;;;4979461;28;20183;-60
2021/12/04 03:49:12;;;;;;;15.60;12.80;;;;;;;;;;4978290;28;20185;-60
2021/12/04 03:51:38;;;;;;;14.63;12.40;;;;;;;;;;4980188;28;20193;-60
2021/12/04 03:54:04;;;;;;;15.33;12.53;;;;;;;;;;4978048;28;20188;-60
2021/12/04 03:56:32;;;;;;;16.67;13.23;;;;;;;;;;4978541;28;20224;-60
2021/12/04 03:58:58;;;;;;;14.43;12.40;;;;;;;;;;4979440;28;20664;-61
2021/12/04 04:01:24;;;;;;;14.50;12.20;;;;;;;;;;4979676;28;20173;-61
2021/12/04 04:03:50;;;;;;;15.90;12.97;;;;;;;;;;4978993;28;20184;-61
2021/12/04 04:06:16;;;;;;;15.10;13.43;;;;;;;;;;4978264;28;20250;-62
2021/12/04 04:08:42;;;;;;;15.37;12.43;;;;;;;;;;4977510;28;20209;-63
2021/12/04 04:11:08;;;;;;;16.67;13.10;;;;;;;;;;4977637;28;20445;-67
2021/12/04 04:13:34;;;;;;;17.40;13.30;;;;;;;;;;4978467;28;20666;-62
2021/12/04 04:16:01;;;;;;;15.10;12.90;;;;;;;;;;4977074;28;20214;-62
2021/12/04 04:18:30;;;;;;;14.43;12.30;;;;;;;;;;4978576;28;20583;-63
2021/12/04 04:20:56;;;;;;;16.10;11.70;;;;;;;;;;4978392;28;20173;-61
2021/12/04 04:23:22;;;;;;;15.60;12.37;;;;;;;;;;4978867;28;20181;-63
2021/12/04 04:25:48;;;;;;;16.90;12.40;;;;;;;;;;4978002;28;20185;-62
2021/12/04 04:28:14;;;;;;;14.80;11.87;;;;;;;;;;4978084;28;20295;-62
2021/12/04 04:30:40;;;;;;;13.90;11.87;;;;;;;;;;4978148;28;20192;-61
2021/12/04 04:33:07;;;;;;;13.33;11.63;;;;;;;;;;4977792;28;20708;-62
2021/12/04 04:35:34;;;;;;;11.73;10.23;;;;;;;;;;4976308;28;20201;-61
2021/12/04 05:12:57;;;;;;;12.00;9.63;;;;;;;;;;4977469;28;20610;-61
2021/12/04 05:15:36;;;;;;;12.17;9.67;;;;;;;;;;4977155;28;20244;-62
2021/12/04 05:18:11;;;;;;;12.17;10.10;;;;;;;;;;4976838;28;20204;-62
2021/12/04 05:20:39;;;;;;;10.10;8.90;;;;;;;;;;4975317;28;20200;-61
2021/12/04 05:23:10;;;;;;;11.63;9.10;;;;;;;;;;4976464;28;20184;-62
2021/12/04 05:25:36;;;;;;;10.53;9.50;;;;;;;;;;4975727;28;20178;-61
2021/12/04 05:28:06;;;;;;;12.70;9.87;;;;;;;;;;4977191;28;20235;-61
2021/12/04 05:30:33;;;;;;;9.80;8.80;;;;;;;;;;4977172;28;20181;-63
2021/12/04 05:32:59;;;;;;;12.60;8.63;;;;;;;;;;4977103;28;20235;-62
2021/12/04 05:35:25;;;;;;;11.83;8.97;;;;;;;;;;4976694;28;20209;-62
2021/12/04 05:37:51;;;;;;;10.70;9.30;;;;;;;;;;4975540;28;20208;-61
2021/12/04 05:40:17;;;;;;;10.90;8.90;;;;;;;;;;4977218;28;20189;-61
2021/12/04 05:42:44;;;;;;;9.83;8.80;;;;;;;;;;4976697;28;20212;-63
2021/12/04 05:45:28;;;;;;;10.10;8.87;;;;;;;;;;4976889;28;20240;-61
2021/12/04 05:55:30;;;;;;;10.03;7.87;;;;;;;;;;4976447;28;20255;-64
2021/12/04 05:57:56;;;;;;;10.20;9.03;;;;;;;;;;4976673;28;20255;-62
2021/12/04 06:00:24;;;;;;;10.23;8.90;;;;;;;;;;4975281;28;20204;-63
2021/12/04 06:02:50;;;;;;;11.93;9.53;;;;;;;;;;4977640;28;20185;-62
2021/12/04 06:05:17;;;;;;;12.37;9.90;;;;;;;;;;4979155;28;20267;-62
2021/12/04 06:07:43;;;;;;;11.57;8.77;;;;;;;;;;4979161;28;20232;-62
2021/12/04 06:10:09;;;;;;;16.20;11.37;;;;;;;;;;4980482;28;20177;-61
2021/12/04 06:12:35;;;;;;;12.63;9.07;;;;;;;;;;4978909;28;20224;-61
2021/12/04 06:15:01;;;;;;;15.07;10.83;;;;;;;;;;4978971;28;20205;-62
2021/12/04 06:17:28;;;;;;;10.10;8.17;;;;;;;;;;4979875;28;20260;-61
2021/12/04 06:22:42;;;;;;;9.93;7.60;;;;;;;;;;4980597;28;20633;-61
2021/12/04 06:25:09;;;;;;;10.73;8.77;;;;;;;;;;4980096;28;20181;-61
2021/12/04 06:27:36;;;;;;;10.60;8.27;;;;;;;;;;4980121;28;20686;-61
2021/12/04 06:30:03;;;;;;;12.17;8.00;;;;;;;;;;4980267;28;20212;-62
2021/12/04 06:32:29;;;;;;;8.30;6.60;;;;;;;;;;4980229;28;20177;-62
2021/12/04 06:34:55;;;;;;;7.50;6.13;;;;;;;;;;4979580;28;20204;-62
2021/12/04 06:37:21;;;;;;;9.93;8.20;;;;;;;;;;4980628;28;20197;-61
2021/12/04 06:39:47;;;;;;;7.73;6.50;;;;;;;;;;4980352;28;20185;-62
2021/12/04 06:42:13;;;;;;;7.00;6.10;;;;;;;;;;4980255;28;20177;-61
2021/12/04 06:44:39;;;;;;;7.00;5.77;;;;;;;;;;4980234;28;20184;-61
2021/12/04 06:47:05;;;;;;;6.10;5.50;;;;;;;;;;4980278;28;20703;-61
2021/12/04 06:49:36;;;;;;;6.40;5.43;;;;;;;;;;4980542;28;20204;-61
2021/12/04 06:52:05;;;;;;;5.63;5.13;;;;;;;;;;4978785;28;20173;-63
2021/12/04 06:54:36;;;;;;;5.90;5.17;;;;;;;;;;4980016;28;20197;-62
2021/12/04 06:57:04;;;;;;;5.90;5.30;;;;;;;;;;4979673;28;20602;-62
2021/12/04 06:59:32;;;;;;;5.20;4.60;;;;;;;;;;4979014;28;20173;-61
2021/12/04 07:01:58;;;;;;;5.53;5.03;;;;;;;;;;4978559;28;20657;-63
2021/12/04 07:04:37;;;;;;;5.20;4.70;;;;;;;;;;4978632;28;20188;-68
2021/12/04 07:07:04;;;;;;;4.60;4.17;;;;;;;;;;4980001;28;20190;-60
2021/12/04 07:09:30;;;;;;;5.20;4.70;;;;;;;;;;4978909;28;20566;-61
2021/12/04 07:11:57;;;;;;;5.13;4.63;;;;;;;;;;4978544;28;20188;-63
2021/12/04 07:14:23;;;;;;;4.97;4.47;;;;;;;;;;4977517;28;20209;-67
2021/12/04 07:16:49;;;;;;;5.10;4.60;;;;;;;;;;4980068;28;20236;-62
2021/12/04 07:19:15;;;;;;;6.40;5.40;;;;;;;;;;4979698;28;20174;-60
2021/12/04 07:21:42;;;;;;;6.30;5.10;;;;;;;;;;4979608;28;20260;-61
2021/12/04 07:24:10;;;;;;;6.03;5.43;;;;;;;;;;4978424;28;20185;-62
2021/12/04 07:26:36;;;;;;;5.20;4.70;;;;;;;;;;4980248;28;20174;-64
2021/12/04 07:31:30;;;;;;;6.07;5.30;;;;;;;;;;5032506;23;20298;-66
2021/12/04 07:33:56;;;;;;;6.07;5.47;;;;;;;;;;5015642;28;20175;-64
2021/12/04 07:36:23;;;;;;;6.23;5.07;;;;;;;;;;5015569;28;20578;-65
2021/12/04 07:38:49;;;;;;;5.90;5.27;;;;;;;;;;5015601;28;20176;-65
2021/12/04 07:41:15;;;;;;;6.83;5.80;;;;;;;;;;5013911;28;20204;-65
2021/12/04 07:43:41;;;;;;;7.23;5.57;;;;;;;;;;5013994;28;20183;-66
2021/12/04 07:46:07;;;;;;;6.47;5.70;;;;;;;;;;5015656;28;20640;-64
2021/12/04 07:48:33;;;;;;;6.27;5.67;;;;;;;;;;5013998;28;20180;-64
2021/12/04 07:51:03;;;;;;;6.10;5.50;;;;;;;;;;5015311;28;20344;-64
2021/12/04 07:53:30;;;;;;;6.70;5.70;;;;;;;;;;5015394;28;20157;-64
2021/12/04 07:55:56;;;;;;;6.90;4.97;;;;;;;;;;5013733;28;20294;-64
2021/12/04 07:58:22;;;;;;;6.10;5.50;;;;;;;;;;5013720;28;20186;-64
2021/12/04 08:00:48;;;;;;;7.10;5.00;;;;;;;;;;5013937;28;20203;-65
2021/12/04 08:03:14;;;;;;;7.27;5.87;;;;;;;;;;5013675;28;20180;-64
2021/12/04 08:05:40;;;;;;;6.27;5.13;;;;;;;;;;5014811;28;20233;-64
2021/12/04 08:08:07;;;;;;;6.13;5.53;;;;;;;;;;5015063;28;20211;-64
2021/12/04 08:10:34;;;;;;;6.03;5.43;;;;;;;;;;5013347;28;20214;-64
2021/12/04 08:13:01;;;;;;;5.90;5.30;;;;;;;;;;5014526;28;20183;-64
2021/12/04 08:15:28;;;;;;;6.53;5.60;;;;;;;;;;5013342;28;20693;-64
2021/12/04 08:17:54;;;;;;;6.23;5.63;;;;;;;;;;5014650;28;20200;-65
2021/12/04 08:20:20;;;;;;;6.63;5.93;;;;;;;;;;5013210;28;20210;-64
2021/12/04 08:22:46;;;;;;;7.87;6.33;;;;;;;;;;5014408;28;20675;-65
2021/12/04 08:25:13;;;;;;;6.73;6.00;;;;;;;;;;5013965;28;20657;-65
2021/12/04 08:27:39;;;;;;;6.50;5.80;;;;;;;;;;5014383;28;20650;-65
2021/12/04 08:30:07;;;;;;;6.63;5.93;;;;;;;;;;5014161;28;20265;-65
2021/12/04 08:32:33;;;;;;;6.97;6.27;;;;;;;;;;5014290;28;20187;-66
2021/12/04 08:34:59;;;;;;;6.33;5.73;;;;;;;;;;5014260;28;20215;-64
2021/12/04 08:37:26;;;;;;;7.20;5.90;;;;;;;;;;5014592;28;20654;-64
2021/12/04 08:39:52;;;;;;;7.20;6.13;;;;;;;;;;5014306;28;20202;-65
2021/12/04 08:42:19;;;;;;;7.37;6.53;;;;;;;;;;5012843;28;20179;-64
2021/12/04 08:44:45;;;;;;;6.90;5.90;;;;;;;;;;5014197;28;20179;-64
2021/12/04 08:47:11;;;;;;;6.63;5.97;;;;;;;;;;5012843;28;20184;-64
2021/12/04 08:49:37;;;;;;;7.30;6.50;;;;;;;;;;5012740;28;20691;-64
2021/12/04 08:52:04;;;;;;;7.80;6.93;;;;;;;;;;5014023;28;20184;-64
2021/12/04 08:54:31;;;;;;;7.30;6.60;;;;;;;;;;5014153;28;20624;-66
2021/12/04 08:56:57;;;;;;;7.20;5.80;;;;;;;;;;5012656;28;20207;-64
2021/12/04 08:59:24;;;;;;;7.97;5.63;;;;;;;;;;5012550;28;20215;-65
2021/12/04 09:01:50;;;;;;;7.17;6.47;;;;;;;;;;5013809;28;20259;-65
2021/12/04 09:04:23;;;;;;;7.00;6.10;;;;;;;;;;5014093;28;20179;-65
2021/12/04 09:06:50;;;;;;;7.67;5.73;;;;;;;;;;5012457;28;20176;-65
2021/12/04 09:09:16;;;;;;;8.10;6.77;;;;;;;;;;5013874;28;20176;-65
2021/12/04 09:11:46;;;;;;;6.37;5.77;;;;;;;;;;5013619;28;20555;-64
2021/12/04 09:14:12;;;;;;;8.87;6.40;;;;;;;;;;5014120;28;20183;-64
2021/12/04 09:16:39;;;;;;;8.83;6.13;;;;;;;;;;5012280;28;20648;-65
2021/12/04 09:19:05;;;;;;;7.20;6.50;;;;;;;;;;5012208;28;20211;-65
2021/12/04 09:21:33;;;;;;;7.93;6.20;;;;;;;;;;5013530;28;20286;-64
2021/12/04 09:24:07;;;;;;;6.57;5.83;;;;;;;;;;5012203;28;20195;-64
2021/12/04 09:35:05;;;;;;;10.73;7.27;;;;;;;;;;4978043;28;20743;-64
2021/12/04 09:59:25;;;;;;;7.60;6.33;;;;;;;;;;5017791;28;20547;-64
2021/12/04 10:04:51;;;;;;;7.63;5.50;;;;;;;;;;5016952;28;20194;-65
2021/12/04 10:24:02;;;;;;;7.93;5.80;;;;;;;;;;4997326;28;20729;-64
2021/12/04 10:34:35;;;;;;;6.90;5.60;;;;;;;;;;5016181;28;20650;-64
2021/12/04 10:37:22;;;;;;;9.67;6.73;;;;;;;;;;5014933;28;20707;-64
2021/12/04 10:39:48;;;;;;;5.87;5.27;;;;;;;;;;5016229;28;20250;-63
2021/12/04 10:42:17;;;;;;;5.33;4.67;;;;;;;;;;5016074;28;20180;-64
2021/12/04 10:44:50;;;;;;;6.00;5.10;;;;;;;;;;5016198;28;20555;-64
2021/12/04 10:47:22;;;;;;;5.10;4.40;;;;;;;;;;5015843;28;20676;-63
2021/12/04 10:50:01;;;;;;;4.97;4.47;;;;;;;;;;5016486;28;20575;-65
2021/12/04 10:52:43;;;;;;;6.60;4.90;;;;;;;;;;5015973;28;20160;-64
2021/12/04 10:55:43;;;;;;;5.63;4.93;;;;;;;;;;5015947;28;20200;-64
2021/12/04 11:01:03;;;;;;;5.63;5.13;;;;;;;;;;5016143;28;20200;-63
2021/12/04 11:03:43;;;;;;;5.23;4.73;;;;;;;;;;5016034;28;20708;-64
2021/12/04 11:06:35;;;;;;;4.87;4.37;;;;;;;;;;5014385;28;20199;-64
2021/12/04 11:23:40;;;;;;;4.70;4.30;;;;;;;;;;5015529;28;20163;-64
2021/12/04 11:26:27;;;;;;;4.67;4.23;;;;;;;;;;5015331;28;20183;-64
2021/12/04 11:42:42;;;;;;;4.20;3.77;;;;;;;;;;5015020;28;20233;-64
2021/12/04 11:45:17;;;;;;;4.00;3.63;;;;;;;;;;5015241;28;20205;-64
2021/12/04 11:47:45;;;;;;;4.10;3.80;;;;;;;;;;5013552;28;20266;-65
2021/12/04 11:50:22;;;;;;;4.60;4.00;;;;;;;;;;5014896;28;20642;-64
2021/12/04 11:52:51;;;;;;;4.10;3.70;;;;;;;;;;5013724;28;20182;-64
2021/12/04 11:55:19;;;;;;;4.07;3.67;;;;;;;;;;5013495;28;20273;-64
2021/12/04 11:57:45;;;;;;;3.80;3.50;;;;;;;;;;5014902;28;20172;-64
2021/12/04 12:00:17;;;;;;;4.60;3.83;;;;;;;;;;5012811;28;20207;-63
2021/12/04 12:02:44;;;;;;;4.23;3.77;;;;;;;;;;5014817;28;20242;-64
2021/12/04 12:05:15;;;;;;;4.30;3.90;;;;;;;;;;5013473;28;20238;-64
2021/12/04 12:07:49;;;;;;;4.30;3.90;;;;;;;;;;5015014;28;20279;-64
2021/12/04 12:10:15;;;;;;;7.57;3.90;;;;;;;;;;5014923;28;20204;-64
2021/12/04 12:12:43;;;;;;;5.53;3.70;;;;;;;;;;5014639;28;20234;-63
2021/12/04 12:15:21;;;;;;;4.00;3.70;;;;;;;;;;5014579;28;20321;-63
2021/12/04 12:17:47;;;;;;;3.73;3.43;;;;;;;;;;5014695;28;20192;-64
2021/12/04 12:20:19;;;;;;;4.67;4.10;;;;;;;;;;5014439;28;20200;-64
2021/12/04 12:22:55;;;;;;;4.90;3.70;;;;;;;;;;5014510;28;20167;-63
2021/12/04 12:36:29;;;;;;;5.13;4.63;;;;;;;;;;5014371;28;20207;-64
2021/12/04 12:39:00;;;;;;;3.90;3.50;;;;;;;;;;5014425;28;20172;-65
2021/12/04 12:41:37;;;;;;;3.60;3.30;;;;;;;;;;5014183;28;20617;-63
2021/12/04 12:44:09;;;;;;;4.13;3.63;;;;;;;;;;5013217;28;20187;-63
2021/12/04 12:46:37;;;;;;;3.37;3.07;;;;;;;;;;5014103;28;20532;-63
2021/12/04 12:49:04;;;;;;;4.17;3.20;;;;;;;;;;5012731;28;20187;-64
2021/12/04 12:51:33;;;;;;;3.23;2.93;;;;;;;;;;5012613;28;20287;-64
2021/12/04 12:54:01;;;;;;;3.97;3.03;;;;;;;;;;5013922;28;20187;-64
2021/12/04 12:56:28;;;;;;;3.63;3.20;;;;;;;;;;5013496;28;20208;-63
2021/12/04 12:59:03;;;;;;;3.53;3.23;;;;;;;;;;5013552;28;20171;-63
2021/12/04 13:13:24;;;;;;;3.43;3.13;;;;;;;;;;5013716;28;20178;-64
2021/12/04 13:15:52;;;;;;;3.90;3.50;;;;;;;;;;5013801;28;20257;-63
2021/12/04 13:18:24;;;;;;;3.90;3.50;;;;;;;;;;5012062;28;20176;-63
2021/12/04 13:20:51;;;;;;;4.30;4.00;;;;;;;;;;5013414;28;20192;-64
2021/12/04 13:23:19;;;;;;;5.67;4.87;;;;;;;;;;5012237;28;20186;-64
2021/12/04 13:25:53;;;;;;;5.33;4.83;;;;;;;;;;5012189;28;20183;-64
2021/12/04 13:28:23;;;;;;;4.93;4.53;;;;;;;;;;5013322;28;20175;-64
2021/12/04 13:30:49;;;;;;;5.13;4.73;;;;;;;;;;5013395;28;20219;-65
2021/12/04 13:33:16;;;;;;;6.00;5.10;;;;;;;;;;5013397;28;20183;-65
2021/12/04 13:35:45;;;;;;;6.70;5.73;;;;;;;;;;5013356;28;20203;-65
2021/12/04 13:38:12;;;;;;;8.00;7.20;;;;;;;;;;5013845;28;20176;-65
2021/12/04 13:40:38;;;;;;;8.73;7.83;;;;;;;;;;5013514;28;20610;-65
2021/12/04 13:43:08;;;;;;;10.80;6.90;;;;;;;;;;5013429;28;20200;-65
2021/12/04 13:45:34;;;;;;;7.37;6.57;;;;;;;;;;5013618;28;20183;-65
2021/12/04 13:48:00;;;;;;;8.93;7.27;;;;;;;;;;5013301;28;20230;-66
2021/12/04 13:53:02;;;;;;;13.63;11.37;;;;;;;;;;5013552;28;20639;-65
2021/12/04 13:55:28;;;;;;;18.67;14.40;;;;;;;;;;5012000;28;20203;-66
2021/12/04 13:57:56;;;;;;;19.47;14.43;;;;;;;;;;5012008;28;20660;-65
2021/12/04 14:00:22;;;;;;;11.83;10.10;;;;;;;;;;5013358;28;20330;-66
2021/12/04 14:02:48;;;;;;;9.70;8.80;;;;;;;;;;5013443;28;20233;-65
2021/12/04 14:05:18;;;;;;;12.70;11.47;;;;;;;;;;5013868;28;20180;-65
2021/12/04 14:07:54;;;;;;;13.97;12.37;;;;;;;;;;5013508;28;20187;-65
2021/12/04 14:10:26;;;;;;;12.80;11.13;;;;;;;;;;5013036;28;20204;-65
2021/12/04 14:12:52;;;;;;;15.33;12.57;;;;;;;;;;5013757;28;20179;-65
2021/12/04 14:15:19;;;;;;;13.07;11.30;;;;;;;;;;5013148;28;20204;-65
2021/12/04 14:17:45;;;;;;;17.97;12.80;;;;;;;;;;5013126;28;20176;-65
2021/12/04 14:20:19;;;;;;;22.23;15.07;;;;;;;;;;5013635;28;20294;-65
2021/12/04 14:22:46;;;;;;;25.57;12.47;;;;;;;;;;5013035;28;20188;-66
2021/12/04 14:25:12;;;;;;;12.60;10.47;;;;;;;;;;5017306;28;20184;-66
2021/12/04 14:27:39;;;;;;;20.30;12.23;;;;;;;;;;5017322;28;20753;-65
2021/12/04 14:30:10;;;;;;;18.87;11.70;;;;;;;;;;5016378;28;20219;-66
2021/12/04 14:32:37;;;;;;;21.93;13.80;;;;;;;;;;5016526;28;20648;-66
2021/12/04 14:35:03;;;;;;;19.20;12.83;;;;;;;;;;5015250;28;20214;-65
2021/12/04 14:37:32;;;;;;;18.93;14.40;;;;;;;;;;5015396;28;20678;-65
2021/12/04 14:39:58;;;;;;;16.10;11.77;;;;;;;;;;5016638;28;20208;-65
2021/12/04 14:42:29;;;;;;;15.80;13.07;;;;;;;;;;5016387;28;20176;-65
2021/12/04 14:45:00;;;;;;;22.60;15.90;;;;;;;;;;5015061;28;20184;-65
2021/12/04 14:47:31;;;;;;;15.73;12.80;;;;;;;;;;5016368;28;20203;-65
2021/12/04 14:50:00;;;;;;;13.57;12.03;;;;;;;;;;5014915;28;20292;-66
2021/12/04 14:52:27;;;;;;;13.77;11.30;;;;;;;;;;5016293;28;20598;-65
2021/12/04 14:54:53;;;;;;;12.63;11.23;;;;;;;;;;5014837;28;20207;-65
2021/12/04 14:57:21;;;;;;;17.93;13.30;;;;;;;;;;5016170;28;20172;-65
2021/12/04 14:59:47;;;;;;;15.60;12.30;;;;;;;;;;5016382;28;20230;-65
2021/12/04 15:02:18;;;;;;;16.90;15.10;;;;;;;;;;5016152;28;20180;-64
2021/12/04 15:04:44;;;;;;;22.10;14.13;;;;;;;;;;5014683;28;20274;-66
2021/12/04 15:07:21;;;;;;;11.90;10.70;;;;;;;;;;5015889;28;20179;-66
2021/12/04 15:09:47;;;;;;;13.47;11.77;;;;;;;;;;5016089;28;20199;-66
2021/12/04 15:12:23;;;;;;;15.80;13.50;;;;;;;;;;5016008;28;20176;-67
2021/12/04 15:14:49;;;;;;;14.47;11.23;;;;;;;;;;5015768;28;20198;-67
2021/12/04 15:17:15;;;;;;;13.90;12.40;;;;;;;;;;5015887;28;20180;-67
2021/12/04 15:19:43;;;;;;;29.63;18.97;;;;;;;;;;5015870;28;20242;-67
2021/12/04 15:22:22;;;;;;;19.03;14.50;;;;;;;;;;5017770;28;20186;-67
2021/12/04 15:24:48;;;;;;;15.70;12.83;;;;;;;;;;5018801;28;20176;-67
2021/12/04 15:27:22;;;;;;;14.70;11.97;;;;;;;;;;5017659;28;20192;-67
2021/12/04 15:29:50;;;;;;;15.37;12.33;;;;;;;;;;5017284;28;20238;-67
2021/12/04 15:32:19;;;;;;;13.97;11.87;;;;;;;;;;5014241;28;20180;-67
2021/12/04 15:34:53;;;;;;;15.03;11.90;;;;;;;;;;5013007;28;20246;-64
2021/12/04 15:37:40;;;;;;;16.47;11.77;;;;;;;;;;5015545;28;20156;-65
2021/12/04 15:40:10;;;;;;;14.83;12.27;;;;;;;;;;5015137;28;20279;-65
2021/12/04 15:42:49;;;;;;;18.50;12.17;;;;;;;;;;5015390;28;20306;-65
2021/12/04 15:48:02;;;;;;;15.80;12.80;;;;;;;;;;5015383;28;20168;-65
2021/12/04 15:50:49;;;;;;;15.37;13.33;;;;;;;;;;5015717;28;20230;-65
2021/12/04 15:53:15;;;;;;;16.17;13.43;;;;;;;;;;5015627;28;20246;-65
2021/12/04 15:55:43;;;;;;;20.37;14.30;;;;;;;;;;5013678;28;20211;-65
2021/12/04 15:58:11;;;;;;;14.20;12.37;;;;;;;;;;5014976;28;20180;-66
2021/12/04 16:00:40;;;;;;;21.13;14.97;;;;;;;;;;5014767;28;20661;-65
2021/12/04 16:03:10;;;;;;;22.73;16.20;;;;;;;;;;5015251;28;20199;-66
2021/12/04 16:05:41;;;;;;;21.57;14.93;;;;;;;;;;5013430;28;20184;-66
2021/12/04 16:08:11;;;;;;;25.83;18.97;;;;;;;;;;5014818;28;20247;-66
2021/12/04 16:10:38;;;;;;;26.17;18.80;;;;;;;;;;5014720;28;20204;-66
2021/12/04 16:13:05;;;;;;;33.13;23.60;;;;;;;;;;5014705;28;20176;-66
2021/12/04 16:15:31;;;;;;;25.27;18.20;;;;;;;;;;5014905;28;20675;-66
2021/12/04 16:17:57;;;;;;;27.63;16.63;;;;;;;;;;5014482;28;20171;-66
2021/12/04 16:20:23;;;;;;;18.90;14.27;;;;;;;;;;5014949;28;20258;-66
2021/12/04 16:22:51;;;;;;;20.67;16.90;;;;;;;;;;5014487;28;20184;-66
2021/12/04 16:25:22;;;;;;;19.70;15.07;;;;;;;;;;5013087;28;20233;-65
2021/12/04 16:37:49;;;;;;;19.87;14.60;;;;;;;;;;5014658;28;20176;-66
2021/12/04 16:40:23;;;;;;;16.93;14.13;;;;;;;;;;5014571;28;20192;-65
2021/12/04 16:43:01;;;;;;;18.37;14.60;;;;;;;;;;5012887;28;20190;-65
2021/12/04 16:45:27;;;;;;;16.30;13.30;;;;;;;;;;5012684;28;20532;-65
2021/12/04 16:47:54;;;;;;;17.87;15.33;;;;;;;;;;5014166;28;20190;-65
2021/12/04 16:50:23;;;;;;;17.23;13.73;;;;;;;;;;5014174;28;20619;-65
2021/12/04 16:58:31;;;;;;;66.73;34.97;;;;;;;;;;5005293;28;20186;-65
2021/12/04 17:00:58;;;;;;;46.40;25.37;;;;;;;;;;5014602;28;20196;-65
2021/12/04 17:03:24;;;;;;;25.07;17.50;;;;;;;;;;5014152;28;20186;-65
2021/12/04 17:05:51;;;;;;;67.53;36.47;;;;;;;;;;5012656;28;20176;-65
2021/12/04 17:08:17;;;;;;;123.37;74.50;;;;;;;;;;5014247;28;20238;-65
2021/12/04 17:10:43;;;;;;;38.27;25.80;;;;;;;;;;5014011;28;20203;-65
2021/12/04 17:13:09;;;;;;;52.40;33.60;;;;;;;;;;5013750;28;20192;-65
2021/12/04 17:15:38;;;;;;;52.93;35.80;;;;;;;;;;5013945;28;20207;-65
2021/12/04 17:18:09;;;;;;;132.77;65.30;;;;;;;;;;5013711;28;20644;-65
2021/12/04 17:20:35;;;;;;;174.07;98.60;;;;;;;;;;5013851;28;20200;-65
2021/12/04 17:23:01;;;;;;;46.80;32.50;;;;;;;;;;5013632;28;20180;-65
2021/12/04 17:25:27;;;;;;;27.50;21.13;;;;;;;;;;5012351;28;20191;-65
2021/12/04 17:27:54;;;;;;;29.47;21.33;;;;;;;;;;5014116;28;20182;-65
2021/12/04 17:30:20;;;;;;;17.93;13.90;;;;;;;;;;5013380;28;20223;-65
2021/12/04 17:32:47;;;;;;;36.97;28.13;;;;;;;;;;5012721;28;20613;-65
2021/12/04 17:35:16;;;;;;;28.63;19.53;;;;;;;;;;5012612;28;20204;-65
2021/12/04 17:37:42;;;;;;;64.53;31.70;;;;;;;;;;5013115;28;20640;-65
2021/12/04 17:40:08;;;;;;;44.43;21.63;;;;;;;;;;5012847;28;20435;-65
2021/12/04 17:42:35;;;;;;;56.17;27.10;;;;;;;;;;5012667;28;20184;-65
2021/12/04 17:45:02;;;;;;;113.87;40.67;;;;;;;;;;5011277;28;20271;-66
2021/12/04 17:47:31;;;;;;;48.30;26.50;;;;;;;;;;5011139;28;20187;-65
2021/12/04 17:49:57;;;;;;;31.13;23.40;;;;;;;;;;5012843;28;20200;-65
2021/12/04 17:52:23;;;;;;;35.90;28.53;;;;;;;;;;5013198;28;20179;-65
2021/12/04 17:54:49;;;;;;;23.40;17.70;;;;;;;;;;5011303;28;20245;-65